createdAt,value
2023-03-17T00:01:40.798Z,17.60
2023-03-17T00:04:29.113Z,15.40
2023-03-17T00:07:17.080Z,16.90
2023-03-17T00:10:00.083Z,17.80
2023-03-17T00:12:29.510Z,16.10
2023-03-17T00:15:06.006Z,17.10
2023-03-17T00:18:00.370Z,16.10
2023-03-17T00:20:34.973Z,15.90
2023-03-17T00:23:13.141Z,16.00
2023-03-17T00:26:19.945Z,15.60
2023-03-17T00:28:56.488Z,15.60
2023-03-17T00:34:46.781Z,16.80
2023-03-17T00:38:14.858Z,15.00
2023-03-17T00:47:52.739Z,15.00
2023-03-17T00:51:07.850Z,15.60
2023-03-17T00:56:27.474Z,16.50
2023-03-17T00:58:59.437Z,17.30
2023-03-17T01:01:32.775Z,15.20
2023-03-17T01:04:26.822Z,16.70
2023-03-17T01:07:28.350Z,16.60
2023-03-17T01:10:40.018Z,15.40
2023-03-17T01:16:16.199Z,17.00
2023-03-17T01:25:10.626Z,17.20
2023-03-17T01:28:05.887Z,16.30
2023-03-17T01:30:52.791Z,16.10
2023-03-17T01:33:27.301Z,15.90
2023-03-17T01:35:57.430Z,16.50
2023-03-17T01:38:40.023Z,15.50
2023-03-17T01:44:25.814Z,16.80
2023-03-17T01:47:12.997Z,18.00
2023-03-17T01:53:33.125Z,17.30
2023-03-17T01:56:17.703Z,16.10
2023-03-17T01:59:26.198Z,16.30
2023-03-17T02:02:09.930Z,16.80
2023-03-17T02:04:53.323Z,16.80
2023-03-17T02:07:25.216Z,16.80
2023-03-17T02:10:18.297Z,17.30
2023-03-17T02:12:57.484Z,16.10
2023-03-17T02:15:51.445Z,16.40
2023-03-17T02:18:22.398Z,16.50
2023-03-17T02:20:57.913Z,16.70
2023-03-17T02:23:28.217Z,16.60
2023-03-17T02:25:56.742Z,17.60
2023-03-17T02:28:29.727Z,16.00
2023-03-17T02:30:59.897Z,16.00
2023-03-17T02:33:29.432Z,14.50
2023-03-17T02:36:05.774Z,16.00
2023-03-17T02:38:36.252Z,14.90
2023-03-17T02:41:10.120Z,15.50
2023-03-17T02:43:39.523Z,16.10
2023-03-17T02:46:09.039Z,15.20
2023-03-17T02:48:41.168Z,15.70
2023-03-17T02:51:22.988Z,16.80
2023-03-17T02:53:59.774Z,14.90
2023-03-17T02:56:29.657Z,15.60
2023-03-17T02:59:03.107Z,15.70
2023-03-17T03:01:34.525Z,17.50
2023-03-17T03:04:05.120Z,14.20
2023-03-17T03:06:35.481Z,15.10
2023-03-17T03:09:06.098Z,15.20
2023-03-17T03:14:28.289Z,15.00
2023-03-17T03:17:01.292Z,13.50
2023-03-17T03:20:00.064Z,15.70
2023-03-17T03:22:30.546Z,14.90
2023-03-17T03:25:01.399Z,14.20
2023-03-17T03:27:31.090Z,14.40
2023-03-17T03:30:00.214Z,14.30
2023-03-17T03:32:30.307Z,15.00
2023-03-17T03:34:59.843Z,14.10
2023-03-17T03:37:33.806Z,14.00
2023-03-17T03:40:04.454Z,12.10
2023-03-17T03:42:33.986Z,12.90
2023-03-17T03:51:52.112Z,12.10
2023-03-17T03:55:59.081Z,11.80
2023-03-17T03:58:42.535Z,10.70
2023-03-17T04:01:11.404Z,12.30
2023-03-17T04:03:49.809Z,13.50
2023-03-17T04:06:17.662Z,13.30
2023-03-17T04:08:46.517Z,12.40
2023-03-17T04:11:13.800Z,12.20
2023-03-17T04:13:41.877Z,11.40
2023-03-17T04:16:26.693Z,12.10
2023-03-17T04:18:55.001Z,11.00
2023-03-17T04:21:23.927Z,11.30
2023-03-17T04:23:51.804Z,11.30
2023-03-17T04:26:19.649Z,12.90
2023-03-17T04:28:49.733Z,11.60
2023-03-17T04:32:50.249Z,12.40
2023-03-17T04:35:28.727Z,13.40
2023-03-17T04:38:00.109Z,12.50
2023-03-17T04:40:31.445Z,13.00
2023-03-17T04:43:02.431Z,13.10
2023-03-17T04:45:32.591Z,11.80
2023-03-17T04:48:03.555Z,13.10
2023-03-17T04:50:42.636Z,11.30
2023-03-17T04:53:12.410Z,12.40
2023-03-17T04:56:32.908Z,12.10
2023-03-17T04:59:03.425Z,12.20
2023-03-17T05:01:40.388Z,11.60
2023-03-17T05:04:07.608Z,11.60
2023-03-17T05:06:37.202Z,11.40
2023-03-17T05:09:05.259Z,13.30
2023-03-17T05:11:33.937Z,12.10
2023-03-17T05:14:01.088Z,12.80
2023-03-17T05:16:30.800Z,12.50
2023-03-17T05:19:19.056Z,13.70
2023-03-17T05:21:47.922Z,13.50
2023-03-17T05:24:22.600Z,13.20
2023-03-17T05:34:41.160Z,14.30
2023-03-17T05:40:13.788Z,16.30
2023-03-17T05:43:12.907Z,16.00
2023-03-17T05:45:41.077Z,15.20
2023-03-17T05:48:12.919Z,17.70
2023-03-17T05:50:56.787Z,17.30
2023-03-17T05:53:24.749Z,17.40
2023-03-17T05:55:54.715Z,17.70
2023-03-17T05:58:28.373Z,18.10
2023-03-17T06:01:01.516Z,17.90
2023-03-17T06:06:26.948Z,18.70
2023-03-17T06:08:57.278Z,18.30
2023-03-17T06:11:27.255Z,19.20
2023-03-17T06:16:58.885Z,19.40
2023-03-17T06:19:49.337Z,19.30
2023-03-17T06:24:53.298Z,16.80
2023-03-17T06:27:55.426Z,18.20
2023-03-17T06:30:31.730Z,19.60
2023-03-17T06:33:03.418Z,18.30
2023-03-17T06:35:35.138Z,17.00
2023-03-17T06:38:11.931Z,19.10
2023-03-17T06:40:53.703Z,17.50
2023-03-17T06:46:41.563Z,16.30
2023-03-17T06:49:31.241Z,15.90
2023-03-17T06:55:30.130Z,17.10
2023-03-17T06:58:27.053Z,15.00
2023-03-17T07:05:04.204Z,15.20
2023-03-17T07:07:42.967Z,14.70
2023-03-17T07:10:33.205Z,14.80
2023-03-17T07:13:08.291Z,18.00
2023-03-17T07:15:40.725Z,18.80
2023-03-17T07:18:35.910Z,15.50
2023-03-17T07:22:27.228Z,16.60
2023-03-17T07:25:16.626Z,16.50
2023-03-17T07:27:57.203Z,18.50
2023-03-17T07:34:35.242Z,16.20
2023-03-17T07:37:15.676Z,17.00
2023-03-17T07:41:05.710Z,15.30
2023-03-17T07:43:58.730Z,16.80
2023-03-17T07:47:02.609Z,16.80
2023-03-17T07:49:49.871Z,16.00
2023-03-17T07:52:21.672Z,16.30
2023-03-17T07:54:56.400Z,15.20
2023-03-17T08:16:31.586Z,14.90
2023-03-17T08:19:18.153Z,14.20
2023-03-17T08:25:30.600Z,16.40
2023-03-17T08:28:13.509Z,16.10
2023-03-17T08:31:21.412Z,15.60
2023-03-17T08:33:56.857Z,15.80
2023-03-17T08:36:26.214Z,18.10
2023-03-17T08:39:32.899Z,17.00
2023-03-17T08:45:29.181Z,16.20
2023-03-17T08:48:06.830Z,16.30
2023-03-17T08:50:38.093Z,14.80
2023-03-17T08:53:05.633Z,14.50
2023-03-17T08:55:53.456Z,15.00
2023-03-17T09:01:39.601Z,14.70
2023-03-17T09:04:19.729Z,13.30
2023-03-17T09:07:10.175Z,13.80
2023-03-17T09:09:55.818Z,52.70
2023-03-17T09:12:28.319Z,22.40
2023-03-17T09:15:15.667Z,14.40
2023-03-17T09:21:35.188Z,13.20
2023-03-17T09:25:00.156Z,13.30
2023-03-17T09:27:32.869Z,14.10
2023-03-17T09:30:06.608Z,14.40
2023-03-17T09:32:51.249Z,13.90
2023-03-17T09:36:04.864Z,13.30
2023-03-17T09:38:39.092Z,12.00
2023-03-17T09:41:40.158Z,13.30
2023-03-17T09:44:42.532Z,12.40
2023-03-17T09:48:20.322Z,12.80
2023-03-17T09:51:12.985Z,11.90
2023-03-17T09:54:24.784Z,15.20
2023-03-17T09:57:50.612Z,12.50
2023-03-17T10:00:47.272Z,11.40
2023-03-17T10:03:32.389Z,12.50
2023-03-17T10:13:49.571Z,11.80
2023-03-17T10:17:17.213Z,18.80
2023-03-17T10:30:11.511Z,11.60
2023-03-17T10:32:48.119Z,11.40
2023-03-17T10:39:32.614Z,10.50
2023-03-17T10:42:15.649Z,10.90
2023-03-17T10:47:59.467Z,11.20
2023-03-17T10:50:57.011Z,11.20
2023-03-17T10:53:37.709Z,10.70
2023-03-17T10:56:45.955Z,9.10
2023-03-17T10:59:46.434Z,9.60
2023-03-17T11:02:50.366Z,8.50
2023-03-17T11:05:29.328Z,7.50
2023-03-17T11:08:26.094Z,7.00
2023-03-17T11:25:48.086Z,7.70
2023-03-17T11:28:31.949Z,7.50
2023-03-17T11:31:14.504Z,7.80
2023-03-17T11:54:33.877Z,7.10
2023-03-17T11:57:55.461Z,7.30
2023-03-17T12:00:32.984Z,7.40
2023-03-17T12:04:16.589Z,7.60
2023-03-17T12:07:47.135Z,7.10
2023-03-17T12:37:28.817Z,9.00
2023-03-17T12:47:43.343Z,10.60
2023-03-17T12:53:52.606Z,11.20
2023-03-17T13:02:29.476Z,11.00
2023-03-17T13:05:52.302Z,10.50
2023-03-17T13:08:52.148Z,10.60
2023-03-17T13:11:26.902Z,10.30
2023-03-17T13:13:54.312Z,9.20
2023-03-17T13:16:38.457Z,9.80
2023-03-17T13:19:32.464Z,10.20
2023-03-17T13:22:06.780Z,10.20
2023-03-17T13:24:58.236Z,10.90
2023-03-17T13:28:20.588Z,13.20
2023-03-17T17:00:03.342Z,12.40
2023-03-17T17:19:57.508Z,13.10
2023-03-17T17:22:40.666Z,13.50
2023-03-17T18:10:42.224Z,15.70
2023-03-17T19:54:04.281Z,23.90
2023-03-17T19:57:29.064Z,24.30
2023-03-17T20:00:24.148Z,24.20
2023-03-17T20:13:06.843Z,23.20
2023-03-17T20:18:40.991Z,23.40
2023-03-17T20:21:24.274Z,24.00
2023-03-17T20:24:11.589Z,21.80
2023-03-17T20:27:08.897Z,24.00
2023-03-17T20:29:52.331Z,24.20
2023-03-17T20:32:34.233Z,22.60
2023-03-17T20:35:06.130Z,21.40
2023-03-17T20:48:32.825Z,24.20
2023-03-17T20:51:25.030Z,21.80
2023-03-17T20:54:10.904Z,22.40
2023-03-17T21:01:31.990Z,17.70
2023-03-17T21:26:43.359Z,14.70
2023-03-17T23:21:46.153Z,12.60
2023-03-17T23:29:14.440Z,13.70
2023-03-17T23:48:49.973Z,16.40
